Time;durP1;ratioP1;P1;durP2;ratioP2;P2;SDS_P1;SDS_P2;PMS_P1;PMS_P2;Temp;Humidity;BMP_temperature;BMP_pressure;BME280_temperature;BME280_humidity;BME280_pressure;Samples;Min_cycle;Max_cycle;Signal;HPM_P1;HPM_P2
2024/02/06 06:01:17;;;;;;;22.60;13.45;;;3.90;90.10;;;;;;4500903;23;20439;-73
2024/02/06 06:03:18;;;;;;;23.55;13.45;;;4.00;90.40;;;;;;4086030;29;20143;-73
2024/02/06 06:05:22;;;;;;;25.10;14.30;;;4.00;90.60;;;;;;4084769;29;20048;-74
2024/02/06 06:07:24;;;;;;;24.30;13.85;;;4.10;90.50;;;;;;4084440;29;20477;-75
2024/02/06 06:09:26;;;;;;;24.63;14.88;;;4.10;90.60;;;;;;4084631;29;20521;-75
2024/02/06 06:11:27;;;;;;;22.98;14.10;;;4.10;90.80;;;;;;4087145;29;20056;-75
2024/02/06 06:13:29;;;;;;;25.73;14.80;;;4.10;90.80;;;;;;4087542;29;20110;-75
2024/02/06 06:15:30;;;;;;;28.55;14.57;;;4.10;90.90;;;;;;4087652;29;20099;-74
2024/02/06 06:17:33;;;;;;;23.55;14.52;;;4.10;91.00;;;;;;4087272;29;20090;-75
2024/02/06 06:19:35;;;;;;;25.05;14.93;;;4.10;90.80;;;;;;4087538;29;20441;-75
2024/02/06 06:21:38;;;;;;;25.67;14.75;;;4.20;90.70;;;;;;4087257;29;20052;-74
2024/02/06 06:23:39;;;;;;;22.70;14.10;;;4.20;90.70;;;;;;4087634;29;20138;-74
2024/02/06 06:25:41;;;;;;;24.05;13.75;;;4.30;90.30;;;;;;4087387;29;20080;-75
2024/02/06 06:27:43;;;;;;;23.48;12.63;;;4.30;90.10;;;;;;4087582;29;20055;-74
2024/02/06 06:29:46;;;;;;;19.55;12.48;;;4.40;90.10;;;;;;4087381;29;20100;-74
2024/02/06 06:31:46;;;;;;;20.23;11.80;;;4.40;90.00;;;;;;4087152;29;20052;-75
2024/02/06 06:33:50;;;;;;;22.08;12.73;;;4.50;90.00;;;;;;4092470;29;20506;-75
2024/02/06 06:35:51;;;;;;;18.60;11.52;;;4.50;89.40;;;;;;4103079;29;20055;-76
2024/02/06 06:37:53;;;;;;;18.92;10.50;;;4.40;89.40;;;;;;4102640;29;20051;-73
2024/02/06 06:39:56;;;;;;;17.15;10.13;;;4.40;89.70;;;;;;4102779;29;20521;-75
2024/02/06 06:41:58;;;;;;;16.90;10.07;;;4.30;89.70;;;;;;4102676;29;20051;-75
2024/02/06 06:43:59;;;;;;;17.25;9.43;;;4.30;89.90;;;;;;4092901;29;20043;-76
2024/02/06 06:46:01;;;;;;;16.15;8.70;;;4.30;90.00;;;;;;4086489;29;20441;-74
2024/02/06 06:48:03;;;;;;;16.55;8.50;;;4.20;89.90;;;;;;4087083;29;20101;-76
2024/02/06 06:50:08;;;;;;;13.98;8.10;;;4.30;89.80;;;;;;4086897;29;20070;-76
2024/02/06 06:52:10;;;;;;;13.80;8.02;;;4.30;89.50;;;;;;4087064;29;20056;-74
2024/02/06 06:54:12;;;;;;;12.52;7.13;;;4.30;89.60;;;;;;4086770;29;20169;-74
2024/02/06 06:56:17;;;;;;;13.48;7.75;;;4.30;89.50;;;;;;4086826;29;20048;-75
2024/02/06 06:58:19;;;;;;;15.25;8.10;;;4.30;89.20;;;;;;4086826;29;20507;-77
2024/02/06 07:00:21;;;;;;;15.63;7.65;;;4.40;89.30;;;;;;4086648;29;20052;-75
2024/02/06 07:02:23;;;;;;;13.43;6.97;;;4.40;89.30;;;;;;4100426;29;20137;-75
2024/02/06 07:04:25;;;;;;;15.02;7.30;;;4.40;89.30;;;;;;4102768;29;20058;-74
2024/02/06 07:06:28;;;;;;;15.82;7.20;;;4.40;89.30;;;;;;4102269;29;20106;-75
2024/02/06 07:08:30;;;;;;;16.05;7.25;;;4.40;89.10;;;;;;4102562;29;20489;-76
2024/02/06 07:10:32;;;;;;;12.98;6.93;;;4.40;88.90;;;;;;4102610;29;20051;-75
2024/02/06 07:12:34;;;;;;;14.10;7.00;;;4.40;88.90;;;;;;4102476;29;20114;-74
2024/02/06 07:14:37;;;;;;;16.38;6.45;;;4.40;88.70;;;;;;4102503;29;20125;-74
2024/02/06 07:16:39;;;;;;;15.18;6.55;;;4.40;88.60;;;;;;4102455;29;20551;-74
2024/02/06 07:18:41;;;;;;;14.65;6.78;;;4.40;88.60;;;;;;4102415;29;20051;-75
2024/02/06 07:20:43;;;;;;;13.38;6.18;;;4.50;88.40;;;;;;4102530;29;20055;-74
2024/02/06 07:22:46;;;;;;;12.38;5.80;;;4.50;88.30;;;;;;4101083;28;20051;-75
2024/02/06 07:24:48;;;;;;;12.55;5.70;;;4.60;87.80;;;;;;4102162;29;20056;-75
2024/02/06 07:26:50;;;;;;;12.90;6.45;;;4.60;87.70;;;;;;4102290;29;20051;-75
2024/02/06 07:28:52;;;;;;;11.43;6.05;;;4.60;87.50;;;;;;4102390;29;20047;-74
2024/02/06 07:30:54;;;;;;;12.10;5.78;;;4.70;87.10;;;;;;4102087;29;20102;-75
2024/02/06 07:32:56;;;;;;;13.05;5.93;;;4.70;87.00;;;;;;4101964;29;20043;-75
2024/02/06 07:34:59;;;;;;;13.82;5.82;;;4.80;86.50;;;;;;4102160;29;20056;-74
2024/02/06 07:37:01;;;;;;;13.52;6.35;;;4.80;86.30;;;;;;4102191;29;20055;-75
2024/02/06 07:39:05;;;;;;;13.48;6.25;;;4.90;86.10;;;;;;4102169;29;20051;-75
2024/02/06 07:41:07;;;;;;;12.50;6.25;;;4.90;86.20;;;;;;4101690;29;20047;-74
2024/02/06 07:43:09;;;;;;;12.52;6.15;;;5.00;85.80;;;;;;4101988;29;20090;-75
2024/02/06 07:45:10;;;;;;;12.15;6.72;;;5.00;85.70;;;;;;4091336;29;20056;-74
2024/02/06 07:47:12;;;;;;;13.10;6.25;;;5.00;85.60;;;;;;4085677;29;20051;-75
2024/02/06 07:49:14;;;;;;;14.20;6.63;;;5.10;85.30;;;;;;4086187;29;20047;-75
2024/02/06 07:51:16;;;;;;;14.20;6.82;;;5.20;85.10;;;;;;4091432;29;20394;-75
2024/02/06 07:53:18;;;;;;;16.33;7.35;;;5.20;84.80;;;;;;4101833;29;20102;-74
2024/02/06 07:55:20;;;;;;;16.63;6.80;;;5.20;84.70;;;;;;4102030;29;20441;-74
2024/02/06 07:57:22;;;;;;;14.02;6.82;;;5.20;84.80;;;;;;4101984;29;20396;-75
2024/02/06 07:59:24;;;;;;;13.80;6.57;;;5.30;84.80;;;;;;4101819;29;20047;-74
2024/02/06 08:01:26;;;;;;;18.48;7.22;;;5.40;84.90;;;;;;4101550;29;20063;-76
2024/02/06 08:03:27;;;;;;;16.92;7.10;;;5.30;84.90;;;;;;4101666;29;20047;-76
2024/02/06 08:05:29;;;;;;;15.27;6.95;;;5.40;84.90;;;;;;4101107;29;20047;-74
2024/02/06 08:07:30;;;;;;;14.00;7.03;;;5.40;84.80;;;;;;4100795;29;20054;-73
2024/02/06 08:09:32;;;;;;;16.77;7.15;;;5.40;84.70;;;;;;4101582;29;20051;-74
2024/02/06 08:11:36;;;;;;;17.88;7.88;;;5.50;84.80;;;;;;4101463;29;20051;-74
2024/02/06 08:13:42;;;;;;;16.02;8.00;;;5.50;84.70;;;;;;4101400;29;20131;-75
2024/02/06 08:15:44;;;;;;;14.10;7.47;;;5.50;84.60;;;;;;4101174;29;20547;-73
2024/02/06 08:17:47;;;;;;;18.77;7.88;;;5.60;84.70;;;;;;4101420;29;20094;-73
2024/02/06 08:19:48;;;;;;;17.17;8.98;;;5.50;84.60;;;;;;4101549;29;20090;-74
2024/02/06 08:21:50;;;;;;;14.82;7.53;;;5.60;84.70;;;;;;4101333;29;20051;-75
2024/02/06 08:23:51;;;;;;;18.15;7.68;;;5.60;84.60;;;;;;4101563;29;20051;-75
2024/02/06 08:25:53;;;;;;;14.60;7.72;;;5.60;84.60;;;;;;4101199;29;20516;-73
2024/02/06 08:27:56;;;;;;;17.42;7.65;;;5.60;84.40;;;;;;4101216;29;20448;-74
2024/02/06 08:29:58;;;;;;;15.77;7.88;;;5.70;84.60;;;;;;4101309;29;20055;-74
2024/02/06 08:32:00;;;;;;;15.45;8.07;;;5.70;84.60;;;;;;4101084;29;20082;-73
2024/02/06 08:34:02;;;;;;;16.65;7.88;;;5.70;84.60;;;;;;4100683;28;20039;-75
2024/02/06 08:36:04;;;;;;;16.73;8.50;;;5.70;84.60;;;;;;4100837;29;20051;-75
2024/02/06 08:38:11;;;;;;;14.98;7.78;;;5.80;84.60;;;;;;4101096;29;20047;-75
2024/02/06 08:40:14;;;;;;;16.80;7.68;;;5.80;84.50;;;;;;4101307;29;20061;-73
2024/02/06 08:42:17;;;;;;;14.60;7.45;;;5.90;84.30;;;;;;4100819;29;20507;-75
2024/02/06 08:44:20;;;;;;;16.08;7.25;;;5.90;84.20;;;;;;4100901;29;20201;-74
2024/02/06 08:46:22;;;;;;;14.55;7.00;;;5.90;84.20;;;;;;4089488;29;20098;-75
2024/02/06 08:48:22;;;;;;;18.02;7.38;;;5.90;84.10;;;;;;4085243;29;20473;-75
2024/02/06 08:50:25;;;;;;;13.25;6.78;;;6.00;84.10;;;;;;4085200;29;20054;-74
2024/02/06 08:52:26;;;;;;;14.07;6.57;;;6.00;83.90;;;;;;4085176;29;20055;-74
2024/02/06 08:54:27;;;;;;;13.73;6.10;;;6.00;83.80;;;;;;4090461;29;20055;-74
2024/02/06 08:56:31;;;;;;;14.27;7.18;;;6.10;83.60;;;;;;4100810;29;20589;-75
2024/02/06 08:58:32;;;;;;;14.68;6.32;;;6.10;83.50;;;;;;4100768;29;20130;-74
2024/02/06 09:00:35;;;;;;;12.63;6.45;;;6.10;83.30;;;;;;4100876;29;20047;-75
2024/02/06 09:02:37;;;;;;;13.68;6.50;;;6.10;83.30;;;;;;4100750;29;20051;-74
2024/02/06 09:04:40;;;;;;;13.18;5.75;;;6.10;84.00;;;;;;4100690;29;20090;-75
2024/02/06 09:06:42;;;;;;;14.32;5.93;;;6.20;83.10;;;;;;4100702;29;20043;-75
2024/02/06 09:08:44;;;;;;;11.07;5.53;;;6.20;83.00;;;;;;4100876;29;20469;-74
2024/02/06 09:10:46;;;;;;;13.25;5.55;;;6.30;82.80;;;;;;4101006;29;20047;-75
2024/02/06 09:12:48;;;;;;;11.93;5.65;;;6.30;82.80;;;;;;4100816;29;20066;-75
2024/02/06 09:14:49;;;;;;;11.27;5.35;;;6.30;82.70;;;;;;4100609;29;20477;-76
2024/02/06 09:16:52;;;;;;;10.43;5.25;;;6.30;82.60;;;;;;4100814;29;20105;-74
2024/02/06 09:18:55;;;;;;;12.35;5.35;;;6.40;82.50;;;;;;4100455;29;20085;-72
2024/02/06 09:20:57;;;;;;;9.75;4.57;;;6.40;82.20;;;;;;4100708;29;20466;-74
2024/02/06 09:22:59;;;;;;;10.60;5.10;;;6.50;82.20;;;;;;4100603;29;20059;-75
2024/02/06 09:25:00;;;;;;;9.65;4.50;;;6.50;81.60;;;;;;4100566;29;20449;-76
2024/02/06 09:27:03;;;;;;;10.07;4.47;;;6.50;81.40;;;;;;4100808;29;20051;-74
2024/02/06 09:29:05;;;;;;;11.65;4.18;;;6.60;81.30;;;;;;4100589;29;20390;-76
2024/02/06 09:31:07;;;;;;;9.50;4.80;;;6.70;81.00;;;;;;4100559;29;20466;-75
2024/02/06 09:33:10;;;;;;;7.82;4.22;;;6.70;80.60;;;;;;4100398;29;20106;-75
2024/02/06 09:35:12;;;;;;;9.32;4.10;;;6.70;80.30;;;;;;4100446;29;20457;-75
2024/02/06 09:37:13;;;;;;;9.30;3.95;;;6.80;80.20;;;;;;4100645;29;20051;-74
2024/02/06 09:39:15;;;;;;;8.05;3.63;;;6.80;79.90;;;;;;4100488;29;20051;-75
2024/02/06 09:41:18;;;;;;;7.00;3.55;;;6.80;79.60;;;;;;4100400;29;20055;-75
2024/02/06 09:43:21;;;;;;;6.82;3.55;;;6.90;79.40;;;;;;4100041;29;20055;-74
2024/02/06 09:45:23;;;;;;;9.68;4.40;;;7.00;79.20;;;;;;4099520;29;20055;-75
2024/02/06 09:47:27;;;;;;;8.82;3.83;;;7.00;78.90;;;;;;4098437;29;20047;-74
2024/02/06 09:49:30;;;;;;;6.35;3.30;;;7.00;78.80;;;;;;4100092;29;20477;-76
2024/02/06 09:51:37;;;;;;;6.70;3.28;;;7.10;79.40;;;;;;4100355;29;20075;-74
2024/02/06 09:53:40;;;;;;;7.50;3.47;;;7.20;78.40;;;;;;4100508;29;20044;-76
2024/02/06 09:55:43;;;;;;;6.50;3.00;;;7.20;78.20;;;;;;4092410;29;20044;-77
2024/02/06 09:57:46;;;;;;;6.88;2.97;;;7.30;77.90;;;;;;4084328;29;20082;-75
2024/02/06 09:59:52;;;;;;;6.53;2.70;;;7.30;77.70;;;;;;4084396;29;20052;-74
2024/02/06 10:01:54;;;;;;;;;;;7.30;77.30;;;;;;4084952;29;20467;-74
2024/02/06 10:03:58;;;;;;;7.30;3.30;;;7.30;77.30;;;;;;4094263;29;19928;-74
2024/02/06 10:06:07;;;;;;;5.32;2.55;;;7.40;77.20;;;;;;4100413;29;20098;-75
2024/02/06 10:08:12;;;;;;;6.13;2.83;;;7.30;76.90;;;;;;4100245;29;20377;-75
2024/02/06 10:10:15;;;;;;;6.82;3.03;;;7.40;76.90;;;;;;4100229;29;20102;-75
2024/02/06 10:12:18;;;;;;;6.28;2.55;;;7.40;76.60;;;;;;4100238;29;20477;-74
2024/02/06 10:14:20;;;;;;;4.53;2.38;;;7.50;77.40;;;;;;4100027;29;20048;-74
2024/02/06 10:16:22;;;;;;;5.30;2.22;;;7.50;76.40;;;;;;4100162;29;20048;-76
2024/02/06 10:18:24;;;;;;;6.63;2.30;;;7.60;76.30;;;;;;4100314;29;20262;-75
2024/02/06 10:20:25;;;;;;;6.18;2.65;;;7.60;75.90;;;;;;4100666;29;20047;-76
2024/02/06 10:22:30;;;;;;;4.97;2.35;;;7.70;76.00;;;;;;4100831;29;20047;-75
2024/02/06 10:24:32;;;;;;;5.57;2.57;;;7.60;75.50;;;;;;4101133;29;20043;-75
2024/02/06 10:26:34;;;;;;;4.93;2.30;;;7.70;75.50;;;;;;4100407;29;20106;-76
2024/02/06 10:28:36;;;;;;;6.97;2.63;;;7.70;75.40;;;;;;4100237;29;20043;-74
2024/02/06 10:30:38;;;;;;;4.65;2.10;;;7.80;75.20;;;;;;4100246;29;20054;-75
2024/02/06 10:32:40;;;;;;;4.90;2.05;;;7.90;75.00;;;;;;4100089;29;20055;-76
2024/02/06 10:34:43;;;;;;;8.38;2.58;;;7.90;74.70;;;;;;4100210;29;20087;-76
2024/02/06 10:36:44;;;;;;;6.13;2.92;;;7.90;74.60;;;;;;4100473;29;20055;-77
2024/02/06 10:38:55;;;;;;;5.63;2.35;;;8.00;75.00;;;;;;4100408;29;20054;-73
2024/02/06 10:40:58;;;;;;;5.53;2.20;;;8.00;74.00;;;;;;4100110;29;20048;-74
2024/02/06 10:43:00;;;;;;;5.05;2.20;;;8.00;74.00;;;;;;4099968;29;20055;-73
2024/02/06 10:45:03;;;;;;;5.40;2.15;;;8.00;73.90;;;;;;4099781;29;20044;-76
2024/02/06 10:47:04;;;;;;;5.70;2.42;;;8.00;73.80;;;;;;4100514;29;20131;-75
2024/02/06 10:49:06;;;;;;;5.20;2.33;;;8.00;73.80;;;;;;4096240;28;20055;-74
2024/02/06 10:51:10;;;;;;;8.45;2.20;;;8.00;73.90;;;;;;4097724;29;20394;-74
2024/02/06 10:53:12;;;;;;;5.03;2.30;;;8.10;74.00;;;;;;4098088;29;20478;-76
2024/02/06 10:55:15;;;;;;;4.55;2.13;;;8.10;73.50;;;;;;4097560;29;20098;-76
2024/02/06 10:57:21;;;;;;;5.50;2.33;;;8.20;73.50;;;;;;4099880;28;20047;-75
2024/02/06 10:59:29;;;;;;;6.35;2.47;;;8.20;73.50;;;;;;4100652;29;20057;-76
2024/02/06 11:01:36;;;;;;;5.70;1.90;;;8.20;73.30;;;;;;4100121;29;20062;-73
2024/02/06 11:03:46;;;;;;;6.40;2.00;;;8.30;72.90;;;;;;4100490;29;20059;-77
2024/02/06 11:05:54;;;;;;;6.03;2.35;;;8.30;73.00;;;;;;4100329;29;20055;-74
2024/02/06 11:07:59;;;;;;;6.32;2.15;;;8.30;72.90;;;;;;4100539;29;20051;-76
2024/02/06 11:10:03;;;;;;;6.38;2.75;;;8.30;72.70;;;;;;4100678;29;20058;-75
2024/02/06 11:12:08;;;;;;;5.07;1.73;;;8.30;72.60;;;;;;4100398;29;20055;-76
2024/02/06 11:14:14;;;;;;;6.05;2.05;;;8.30;72.40;;;;;;4100401;29;20509;-76
2024/02/06 11:16:20;;;;;;;5.53;2.00;;;8.30;72.10;;;;;;4100159;29;20624;-76
2024/02/06 11:18:28;;;;;;;5.80;2.00;;;8.30;72.40;;;;;;4100369;29;20055;-76
2024/02/06 11:20:33;;;;;;;5.85;2.10;;;8.30;72.10;;;;;;4100213;29;20158;-80
2024/02/06 11:22:37;;;;;;;5.75;1.90;;;8.30;72.10;;;;;;4099996;29;20106;-79
2024/02/06 11:24:40;;;;;;;4.07;1.58;;;8.30;72.10;;;;;;4100310;29;20047;-76
2024/02/06 11:26:43;;;;;;;5.30;1.70;;;8.40;72.20;;;;;;4099989;29;20059;-74
2024/02/06 11:28:47;;;;;;;5.63;1.92;;;8.40;72.20;;;;;;4098247;29;20055;-78
2024/02/06 11:30:50;;;;;;;4.85;1.67;;;8.40;72.00;;;;;;4100227;29;20445;-76
2024/02/06 11:33:04;;;;;;;4.13;1.58;;;8.40;72.00;;;;;;4100327;29;20051;-76
2024/02/06 11:35:07;;;;;;;4.65;1.70;;;8.50;71.80;;;;;;4099769;29;20094;-77
2024/02/06 11:37:09;;;;;;;4.20;1.95;;;8.50;71.60;;;;;;4099446;29;20086;-78
2024/02/06 11:39:13;;;;;;;5.63;1.77;;;8.50;71.50;;;;;;4100111;29;20051;-77
2024/02/06 11:41:17;;;;;;;4.50;1.50;;;8.50;71.40;;;;;;4100135;29;20058;-77
2024/02/06 11:43:27;;;;;;;6.57;2.28;;;8.50;71.50;;;;;;4100247;29;20563;-79
2024/02/06 11:45:31;;;;;;;4.10;1.50;;;8.60;71.60;;;;;;4100168;29;20098;-77
2024/02/06 11:47:32;;;;;;;5.63;1.80;;;8.60;71.20;;;;;;4099928;29;20109;-77
2024/02/06 11:49:34;;;;;;;5.82;2.08;;;8.50;71.00;;;;;;4088613;29;20489;-76
2024/02/06 11:51:36;;;;;;;5.93;1.80;;;8.60;71.20;;;;;;4083693;29;20044;-77
2024/02/06 11:53:38;;;;;;;4.22;1.52;;;8.60;71.10;;;;;;4084035;29;20176;-79
2024/02/06 11:55:42;;;;;;;4.80;1.77;;;8.60;71.20;;;;;;4083878;29;20048;-76
2024/02/06 11:57:44;;;;;;;8.07;1.90;;;8.60;71.30;;;;;;4083870;29;20390;-78
2024/02/06 11:59:46;;;;;;;3.78;1.67;;;8.60;71.40;;;;;;4083908;29;20135;-76
2024/02/06 12:01:49;;;;;;;4.75;1.45;;;8.60;71.30;;;;;;4095080;29;20568;-76
2024/02/06 12:03:57;;;;;;;5.40;2.22;;;8.60;71.20;;;;;;4099609;29;20472;-79
2024/02/06 12:05:58;;;;;;;7.28;1.70;;;8.70;71.40;;;;;;4099495;29;20055;-77
2024/02/06 12:08:01;;;;;;;5.75;1.73;;;8.70;71.10;;;;;;4099104;28;20449;-76
2024/02/06 12:10:02;;;;;;;6.65;1.70;;;8.70;71.10;;;;;;4099785;29;20106;-78
2024/02/06 12:12:05;;;;;;;5.90;1.70;;;8.70;71.10;;;;;;4099713;29;20095;-76
2024/02/06 12:14:07;;;;;;;6.65;1.88;;;8.70;71.30;;;;;;4099317;29;20453;-77
2024/02/06 12:16:09;;;;;;;4.82;1.35;;;8.80;71.30;;;;;;4099610;29;20066;-74
2024/02/06 12:18:16;;;;;;;4.70;1.75;;;8.80;70.60;;;;;;4099379;29;20055;-76
2024/02/06 12:20:19;;;;;;;5.68;1.98;;;8.70;70.40;;;;;;4099469;29;20070;-75
2024/02/06 12:22:21;;;;;;;3.95;1.67;;;8.70;70.70;;;;;;4099445;29;20386;-74
2024/02/06 12:24:23;;;;;;;3.85;1.60;;;8.80;70.60;;;;;;4099049;29;20106;-75
2024/02/06 12:26:25;;;;;;;6.28;1.80;;;8.80;71.50;;;;;;4098973;29;20378;-76
2024/02/06 12:28:26;;;;;;;3.67;1.40;;;9.00;71.00;;;;;;4097295;29;20059;-75
2024/02/06 12:30:29;;;;;;;4.88;1.50;;;8.90;69.90;;;;;;4099011;29;20059;-77
2024/02/06 12:32:31;;;;;;;4.70;1.58;;;9.00;70.80;;;;;;4099394;29;20493;-78
2024/02/06 12:34:35;;;;;;;3.78;1.30;;;9.00;71.10;;;;;;4099293;29;20468;-77
2024/02/06 12:36:37;;;;;;;4.85;1.70;;;9.00;70.20;;;;;;4099125;29;20055;-79
2024/02/06 12:38:39;;;;;;;5.28;1.52;;;9.00;70.40;;;;;;4098862;29;20098;-77
2024/02/06 12:40:43;;;;;;;4.63;1.48;;;9.10;70.20;;;;;;4099151;29;20102;-79
2024/02/06 12:42:45;;;;;;;5.10;1.50;;;9.10;68.90;;;;;;4098890;29;20062;-77
2024/02/06 12:44:49;;;;;;;4.45;1.40;;;9.00;68.70;;;;;;4098974;29;20051;-79
2024/02/06 12:46:51;;;;;;;5.18;1.65;;;9.00;69.20;;;;;;4099263;29;20050;-77
2024/02/06 12:48:53;;;;;;;4.63;1.35;;;9.00;69.10;;;;;;4098515;29;20051;-77
2024/02/06 12:50:56;;;;;;;4.05;1.33;;;9.00;68.90;;;;;;4096490;29;20054;-79
2024/02/06 12:52:59;;;;;;;5.43;1.63;;;9.00;68.90;;;;;;4098241;29;20102;-77
2024/02/06 12:55:00;;;;;;;3.92;1.17;;;9.00;68.90;;;;;;4098653;29;20043;-77
2024/02/06 12:57:03;;;;;;;6.32;1.63;;;9.00;68.90;;;;;;4098520;29;20529;-74
2024/02/06 12:59:04;;;;;;;4.60;1.50;;;9.00;68.90;;;;;;4098759;29;20059;-76
2024/02/06 13:01:07;;;;;;;4.07;1.40;;;9.00;69.00;;;;;;4098211;29;20453;-76
2024/02/06 13:03:11;;;;;;;4.82;1.20;;;8.90;69.00;;;;;;4098500;29;20130;-75
2024/02/06 13:05:17;;;;;;;4.32;1.45;;;8.90;69.00;;;;;;4098774;29;20098;-76
2024/02/06 13:07:21;;;;;;;5.70;1.50;;;8.90;69.20;;;;;;4098681;29;20054;-78
2024/02/06 13:09:27;;;;;;;5.43;1.77;;;8.90;69.00;;;;;;4098650;29;20067;-78
2024/02/06 13:11:29;;;;;;;4.05;1.30;;;8.90;69.40;;;;;;4098545;29;20051;-77
2024/02/06 13:13:31;;;;;;;3.63;1.25;;;8.90;69.40;;;;;;4098377;29;20055;-78
2024/02/06 13:15:34;;;;;;;4.72;1.30;;;8.90;69.20;;;;;;4098549;29;20405;-78
2024/02/06 13:17:36;;;;;;;6.63;1.60;;;8.90;69.20;;;;;;4098553;29;20118;-78
2024/02/06 13:19:38;;;;;;;5.45;1.40;;;8.90;69.10;;;;;;4097702;29;20435;-79
2024/02/06 13:21:40;;;;;;;4.05;1.33;;;9.00;68.90;;;;;;4098382;29;20055;-78
2024/02/06 13:23:45;;;;;;;4.20;1.50;;;9.00;68.90;;;;;;4098237;29;20446;-78
2024/02/06 13:25:46;;;;;;;6.15;1.55;;;9.00;68.90;;;;;;4097854;29;20047;-78
2024/02/06 13:27:48;;;;;;;5.07;1.20;;;9.00;68.90;;;;;;4098151;29;20054;-79
2024/02/06 13:29:50;;;;;;;5.47;1.55;;;8.90;68.70;;;;;;4096575;29;20098;-77
2024/02/06 13:31:52;;;;;;;4.40;1.50;;;8.90;69.10;;;;;;4098721;29;20114;-76
2024/02/06 13:33:54;;;;;;;5.85;1.50;;;8.90;69.00;;;;;;4098258;29;20062;-77
2024/02/06 13:35:56;;;;;;;4.90;1.40;;;8.90;68.70;;;;;;4098617;29;20051;-78
2024/02/06 13:38:00;;;;;;;7.50;1.58;;;8.90;68.90;;;;;;4098046;29;20055;-77
2024/02/06 13:40:05;;;;;;;4.78;1.67;;;8.90;69.00;;;;;;4098030;29;20162;-77
2024/02/06 13:42:07;;;;;;;6.07;1.77;;;8.90;68.90;;;;;;4098472;29;20526;-76
2024/02/06 13:44:10;;;;;;;4.88;1.63;;;8.90;69.10;;;;;;4098195;29;20501;-78
2024/02/06 13:46:12;;;;;;;5.95;1.27;;;8.90;69.00;;;;;;4098271;29;20434;-78
2024/02/06 13:48:14;;;;;;;5.22;1.40;;;8.90;69.00;;;;;;4098265;29;20486;-76
2024/02/06 13:50:15;;;;;;;3.67;1.10;;;8.90;69.80;;;;;;4098123;29;20063;-74
2024/02/06 13:52:17;;;;;;;5.00;1.30;;;9.00;68.80;;;;;;4082441;29;20091;-77
2024/02/06 13:54:19;;;;;;;4.05;1.73;;;8.90;68.50;;;;;;4092696;29;20130;-77
2024/02/06 13:56:23;;;;;;;4.55;1.67;;;9.00;68.50;;;;;;4098158;29;20559;-77
2024/02/06 13:58:25;;;;;;;5.80;1.50;;;9.00;68.40;;;;;;4097751;29;20159;-78
2024/02/06 14:00:28;;;;;;;4.28;1.73;;;8.90;68.30;;;;;;4097139;29;20055;-75
2024/02/06 14:02:30;;;;;;;5.10;1.50;;;8.90;68.30;;;;;;4099015;29;20071;-76
2024/02/06 14:04:32;;;;;;;3.88;1.40;;;9.00;68.30;;;;;;4099230;29;20106;-75
2024/02/06 14:06:33;;;;;;;3.20;1.30;;;9.00;68.50;;;;;;4099342;29;20548;-76
2024/02/06 14:08:35;;;;;;;3.22;1.30;;;8.90;68.10;;;;;;4100440;29;20054;-77
2024/02/06 14:10:37;;;;;;;4.18;1.48;;;8.90;68.30;;;;;;4099294;29;20055;-75
2024/02/06 14:12:40;;;;;;;6.00;1.77;;;8.90;68.50;;;;;;4099633;29;20490;-75
2024/02/06 14:14:42;;;;;;;5.18;1.40;;;9.00;68.40;;;;;;4100058;29;20043;-74
2024/02/06 14:16:44;;;;;;;4.50;1.33;;;9.00;68.40;;;;;;4100044;29;20454;-76
2024/02/06 14:18:46;;;;;;;4.97;1.40;;;9.00;68.40;;;;;;4099959;29;20078;-76
2024/02/06 14:20:47;;;;;;;5.68;1.48;;;9.00;68.30;;;;;;4099859;29;20047;-77
2024/02/06 14:22:49;;;;;;;4.32;1.35;;;9.00;68.20;;;;;;4100151;29;20054;-75
2024/02/06 14:24:51;;;;;;;5.15;1.48;;;9.10;68.10;;;;;;4099539;29;20094;-76
2024/02/06 14:26:52;;;;;;;4.07;1.52;;;9.10;67.80;;;;;;4100118;29;20047;-75
2024/02/06 14:28:56;;;;;;;4.15;1.50;;;9.10;67.60;;;;;;4099950;29;20051;-76
2024/02/06 14:30:58;;;;;;;6.95;1.40;;;9.20;67.30;;;;;;4099823;28;20043;-74
2024/02/06 14:33:00;;;;;;;5.82;1.30;;;9.30;67.10;;;;;;4102651;29;20047;-74
2024/02/06 14:35:02;;;;;;;4.43;1.33;;;9.20;67.10;;;;;;4102966;29;20106;-76
2024/02/06 14:37:05;;;;;;;4.25;1.55;;;9.40;66.70;;;;;;4102741;29;20053;-76
2024/02/06 14:39:07;;;;;;;3.42;1.40;;;9.50;66.40;;;;;;4102892;29;20047;-75
2024/02/06 14:41:12;;;;;;;6.03;1.63;;;9.60;66.20;;;;;;4102620;29;20054;-77
2024/02/06 14:43:13;;;;;;;5.85;1.40;;;9.50;65.30;;;;;;4102823;29;20457;-75
2024/02/06 14:45:17;;;;;;;5.55;1.30;;;9.70;65.10;;;;;;4102426;29;20054;-74
2024/02/06 14:47:18;;;;;;;7.15;4.03;;;10.10;64.10;;;;;;4102636;29;20114;-76
2024/02/06 14:49:20;;;;;;;9.77;7.90;;;12.60;59.70;;;;;;4102279;29;20051;-75
2024/02/06 14:51:23;;;;;;;19.98;13.07;;;15.20;53.10;;;;;;4102354;29;20051;-74
2024/02/06 14:53:25;;;;;;;5.90;4.55;;;16.70;47.30;;;;;;4099601;29;20055;-75
2024/02/06 14:55:27;;;;;;;16.85;10.07;;;18.00;44.10;;;;;;4102972;29;20051;-77
2024/02/06 14:57:28;;;;;;;240.32;75.07;;;17.40;43.60;;;;;;4102816;29;20086;-77
2024/02/06 14:59:30;;;;;;;308.38;177.68;;;17.60;43.40;;;;;;4102394;29;20481;-76
2024/02/06 15:01:34;;;;;;;25.63;23.08;;;16.70;44.50;;;;;;4102260;29;20059;-77
2024/02/06 15:03:36;;;;;;;148.23;137.57;;;16.60;44.20;;;;;;4102210;29;20288;-77
2024/02/06 15:05:38;;;;;;;264.55;245.10;;;17.20;44.40;;;;;;4102314;29;20046;-77
2024/02/06 15:07:40;;;;;;;6.22;1.50;;;16.40;44.60;;;;;;4102427;29;20095;-78
2024/02/06 15:09:42;;;;;;;5.93;1.50;;;14.80;47.10;;;;;;4102408;29;20102;-77
2024/02/06 15:11:44;;;;;;;6.03;1.38;;;14.00;49.80;;;;;;4102143;29;20051;-75
2024/02/06 15:13:47;;;;;;;5.38;1.77;;;13.60;50.60;;;;;;4097897;28;20106;-76
2024/02/06 15:15:48;;;;;;;4.47;1.10;;;13.70;51.00;;;;;;4100110;29;20051;-77
2024/02/06 15:17:51;;;;;;;5.13;1.63;;;13.50;50.90;;;;;;4099559;29;20078;-77
2024/02/06 15:19:54;;;;;;;4.30;1.40;;;13.10;51.40;;;;;;4099623;29;20102;-77
2024/02/06 15:21:56;;;;;;;6.97;1.70;;;12.90;52.40;;;;;;4099949;29;20055;-75
2024/02/06 15:23:58;;;;;;;7.72;1.65;;;12.90;53.10;;;;;;4100173;29;20051;-77
2024/02/06 15:26:00;;;;;;;6.18;1.27;;;12.20;53.60;;;;;;4099923;29;20492;-78
2024/02/06 15:28:03;;;;;;;4.72;1.40;;;11.80;55.10;;;;;;4099822;29;20051;-77
2024/02/06 15:30:07;;;;;;;5.55;1.50;;;11.50;55.90;;;;;;4099972;29;20059;-76
2024/02/06 15:32:09;;;;;;;5.55;1.85;;;11.40;56.00;;;;;;4097360;29;20044;-76
2024/02/06 15:34:12;;;;;;;6.10;1.33;;;11.20;57.10;;;;;;4099825;29;20106;-77
2024/02/06 15:36:14;;;;;;;4.68;1.30;;;11.20;56.90;;;;;;4099476;29;20059;-75
2024/02/06 15:38:16;;;;;;;7.45;1.48;;;10.90;57.30;;;;;;4099199;29;20054;-75
2024/02/06 15:40:18;;;;;;;5.07;1.52;;;10.80;57.90;;;;;;4099833;29;20047;-76
2024/02/06 15:42:21;;;;;;;5.97;1.30;;;10.60;58.70;;;;;;4099093;28;20043;-76
2024/02/06 15:44:21;;;;;;;7.43;1.70;;;10.40;59.10;;;;;;4099102;29;20223;-77
2024/02/06 15:46:24;;;;;;;5.72;1.75;;;10.50;59.40;;;;;;4099564;29;20049;-75
2024/02/06 15:48:26;;;;;;;4.55;1.70;;;12.00;57.10;;;;;;4099728;29;20496;-78
2024/02/06 15:50:32;;;;;;;5.38;2.40;;;13.60;53.00;;;;;;4099191;29;20409;-77
2024/02/06 15:52:33;;;;;;;7.50;2.40;;;12.90;52.60;;;;;;4097683;29;20469;-78
2024/02/06 15:54:38;;;;;;;3.83;1.27;;;11.70;55.00;;;;;;4098133;29;20481;-78
2024/02/06 15:56:40;;;;;;;4.78;1.73;;;10.90;57.40;;;;;;4099785;29;20077;-77
2024/02/06 15:58:42;;;;;;;4.15;1.40;;;10.50;58.80;;;;;;4099570;29;20051;-76
2024/02/06 16:00:44;;;;;;;5.03;1.40;;;10.10;60.10;;;;;;4099233;29;20416;-77
2024/02/06 16:02:46;;;;;;;3.30;1.10;;;9.90;61.00;;;;;;4099506;29;20057;-77
2024/02/06 16:04:48;;;;;;;6.38;1.52;;;9.70;61.90;;;;;;4099200;29;20055;-76
2024/02/06 16:06:50;;;;;;;5.47;1.40;;;9.60;62.70;;;;;;4099324;29;20043;-77
2024/02/06 16:08:52;;;;;;;7.07;2.20;;;9.70;62.70;;;;;;4099277;29;20476;-77
2024/02/06 16:10:54;;;;;;;4.00;1.35;;;9.90;62.40;;;;;;4099594;29;20464;-77
2024/02/06 16:12:56;;;;;;;5.68;1.20;;;9.70;62.50;;;;;;4098965;29;20047;-78
2024/02/06 16:14:57;;;;;;;4.53;1.50;;;9.40;63.20;;;;;;4095395;29;20051;-77
2024/02/06 16:17:01;;;;;;;4.07;1.38;;;9.20;64.10;;;;;;4094884;29;20122;-77
2024/02/06 16:19:03;;;;;;;4.68;1.25;;;9.10;64.30;;;;;;4098872;29;20078;-76
2024/02/06 16:21:06;;;;;;;4.95;1.42;;;9.10;64.90;;;;;;4099208;29;20087;-77
2024/02/06 16:23:10;;;;;;;5.18;1.38;;;9.00;65.30;;;;;;4099567;29;20473;-79
2024/02/06 16:25:12;;;;;;;5.32;1.50;;;8.90;65.60;;;;;;4098730;29;20047;-77
2024/02/06 16:27:14;;;;;;;4.97;1.38;;;8.90;65.70;;;;;;4099005;29;20137;-77
2024/02/06 16:29:16;;;;;;;5.47;1.33;;;8.80;66.00;;;;;;4098910;29;20167;-78
2024/02/06 16:31:18;;;;;;;5.57;1.90;;;8.90;66.20;;;;;;4097739;29;20750;-77
2024/02/06 16:33:20;;;;;;;7.00;3.35;;;8.80;66.40;;;;;;4099694;29;20121;-77
2024/02/06 16:35:22;;;;;;;5.97;1.67;;;8.80;66.40;;;;;;4099923;29;20457;-77
2024/02/06 16:37:24;;;;;;;5.07;1.55;;;8.70;66.50;;;;;;4099278;29;20054;-78
2024/02/06 16:39:27;;;;;;;3.92;1.40;;;8.70;66.80;;;;;;4099530;29;20063;-79
2024/02/06 16:41:29;;;;;;;4.50;1.25;;;8.60;67.10;;;;;;4099713;29;20098;-79